M S San Francisco — WZC3886 — position and weather

sailwx.info

Track history (hours):
 
Tides and Currents Weather Stations Pressure Air Temp Water Temp Dewpoint Dewpoint Depression Visibility Wind Speed Wind Dir Waves Ship Positions

M S San Francisco

Owner: GOLDEN GATE BRIDGE HWY & TRANSP DISTRICT, LARKSPUR, CA. More information available from US FCC via Universal Licensing System and Coast Guard Vessel Documentation Center.

Last reported at 2018-Jan-23 23:00 UTC. Time now 2018-Jan-23 23:26 UTC.
Position N 37°57' W 122°31'.

Length 58 m.

Type: Passenger vessel. MMSI: 366963980.

Date/timePositionNaut miles runAvg speedWind from/ knotsBaromVisibWave heightAir tempDewpointWater temp
2018-Jan-23 23:00N 37°57' W 122°31'0 0.1
2018-Jan-23 22:30N 37°57' W 122°30'0 0.1
2018-Jan-23 22:00N 37°57' W 122°31'0 0.1
2018-Jan-23 21:30N 37°57' W 122°30'0 0.1
2018-Jan-23 21:00N 37°57' W 122°31'0 0.0
2018-Jan-23 20:30N 37°57' W 122°31'0 0.1
2018-Jan-23 20:00N 37°57' W 122°30'0 0.1
2018-Jan-23 19:30N 37°57' W 122°31'0 0.0
2018-Jan-23 19:00N 37°57' W 122°31'0 0.9
2018-Jan-23 18:30N 37°56' W 122°30'713.5
2018-Jan-23 18:00N 37°52' W 122°24'3 5.4
2018-Jan-23 17:30N 37°49' W 122°24'4 8.8
2018-Jan-23 17:00N 37°52' W 122°27'510.7
2018-Jan-23 16:31N 37°48' W 122°24'510.7
2018-Jan-23 16:00N 37°52' W 122°27'3 6.2
2018-Jan-23 15:31N 37°50' W 122°24'1 1.2
2018-Jan-23 15:00N 37°50' W 122°25'4 7.0
2018-Jan-23 14:30N 37°52' W 122°27'510.8
2018-Jan-23 14:00N 37°48' W 122°24'510.9
2018-Jan-23 13:30N 37°52' W 122°27'4 8.4
2018-Jan-23 13:01N 37°56' W 122°29'1 0.1
2018-Jan-23 05:25N 37°57' W 122°31'3 6.7
2018-Jan-23 05:00N 37°55' W 122°27'3 5.9
2018-Jan-23 04:30N 37°52' W 122°27'510.9
2018-Jan-23 04:00N 37°48' W 122°24'511.0
2018-Jan-23 03:30N 37°52' W 122°27'510.7
2018-Jan-23 03:01N 37°48' W 122°23'3 6.8
2018-Jan-23 02:30N 37°51' W 122°26'1 1.3
2018-Jan-23 02:00N 37°50' W 122°25'3 5.1
2018-Jan-23 01:30N 37°48' W 122°24'510.0
2018-Jan-23 01:00N 37°52' W 122°27'510.6
2018-Jan-23 00:30N 37°48' W 122°23'1 1.5
2018-Jan-23 00:00N 37°49' W 122°24'816.0
2018-Jan-22 23:30N 37°56' W 122°28'2 3.5
2018-Jan-22 22:59N 37°57' W 122°31'0 0.0
2018-Jan-22 22:29N 37°57' W 122°31'0 0.1
2018-Jan-22 21:59N 37°57' W 122°30'0 0.1
2018-Jan-22 21:30N 37°57' W 122°31'0 0.0
2018-Jan-22 21:00N 37°57' W 122°31'0 0.0
2018-Jan-22 20:29N 37°57' W 122°31'0 0.0
2018-Jan-22 20:00N 37°57' W 122°31'0 0.1
2018-Jan-22 19:30N 37°57' W 122°30'0 0.1
2018-Jan-22 19:00N 37°57' W 122°31'1 1.3
2018-Jan-22 18:30N 37°56' W 122°30'612.2
2018-Jan-22 18:00N 37°52' W 122°24'3 6.1
2018-Jan-22 17:31N 37°49' W 122°24'4 8.7
2018-Jan-22 17:00N 37°52' W 122°27'510.6
2018-Jan-22 16:30N 37°48' W 122°24'510.7
2018-Jan-22 16:01N 37°52' W 122°27'3 6.6
2018-Jan-22 15:30N 37°50' W 122°24'1 1.1
2018-Jan-22 15:01N 37°50' W 122°25'3 6.6
2018-Jan-22 14:30N 37°52' W 122°27'510.8
2018-Jan-22 14:00N 37°48' W 122°24'510.9
2018-Jan-22 13:30N 37°52' W 122°27'4 8.2
2018-Jan-22 13:00N 37°56' W 122°29'1 0.1
2018-Jan-22 04:17N 37°57' W 122°31'2 7.1
2018-Jan-22 04:00N 37°56' W 122°28'917.1
2018-Jan-22 03:30N 37°48' W 122°23'2 3.7
2018-Jan-22 03:00N 37°50' W 122°25'4 7.1
2018-Jan-22 02:31N 37°51' W 122°29'510.8
2018-Jan-22 02:00N 37°48' W 122°24'0 0.3
2018-Jan-22 01:30N 37°48' W 122°24'917.7
2018-Jan-22 01:00N 37°56' W 122°29'1 2.4
2018-Jan-22 00:30N 37°56' W 122°30'815.1
2018-Jan-22 00:01N 37°51' W 122°24'3 5.7
2018-Jan-21 23:30N 37°48' W 122°24'0 0.0
2018-Jan-21 23:00N 37°48' W 122°24'0 0.0
2018-Jan-21 22:29N 37°48' W 122°24'715.6
2018-Jan-21 22:00N 37°55' W 122°27'3 6.6
2018-Jan-21 21:30N 37°57' W 122°31'713.1
2018-Jan-21 21:00N 37°52' W 122°25'4 8.8
2018-Jan-21 20:30N 37°48' W 122°24'918.0
2018-Jan-21 20:00N 37°56' W 122°29'2 3.5
2018-Jan-21 19:30N 37°57' W 122°31'0 0.0
2018-Jan-21 03:29N 37°57' W 122°31'3 6.2
2018-Jan-21 03:00N 37°55' W 122°27'816.2
2018-Jan-21 02:30N 37°48' W 122°24'0 0.4
2018-Jan-21 02:00N 37°48' W 122°23'510.6
2018-Jan-21 01:30N 37°51' W 122°29'1 1.6
2018-Jan-21 01:01N 37°51' W 122°28'5 9.3
2018-Jan-21 00:30N 37°48' W 122°24'4 8.2
2018-Jan-21 00:01N 37°51' W 122°27'1 2.7
2018-Jan-20 23:31N 37°51' W 122°29'510.0
2018-Jan-20 23:00N 37°49' W 122°23'1 1.0
2018-Jan-20 22:31N 37°49' W 122°24'5 9.1
2018-Jan-20 22:00N 37°51' W 122°29'510.8
2018-Jan-20 21:30N 37°48' W 122°23'3 5.0
2018-Jan-20 21:00N 37°50' W 122°25'3 5.9
2018-Jan-20 20:30N 37°51' W 122°29'510.7
2018-Jan-20 20:00N 37°48' W 122°24'510.9
2018-Jan-20 19:31N 37°51' W 122°29'2 3.0
2018-Jan-20 19:01N 37°51' W 122°27'4 8.0
2018-Jan-20 18:31N 37°48' W 122°24'612.8
2018-Jan-20 18:01N 37°54' W 122°26'4 8.7
2018-Jan-20 17:30N 37°57' W 122°30'0 0.0
2018-Jan-20 05:33N 37°57' W 122°31'0 0.0
2018-Jan-20 05:30N 37°57' W 122°31'3 6.1
2018-Jan-20 05:00N 37°55' W 122°27'3 5.8
2018-Jan-20 04:30N 37°52' W 122°27'510.7
2018-Jan-20 04:01N 37°48' W 122°24'510.9
2018-Jan-20 03:30N 37°52' W 122°27'510.8
2018-Jan-20 03:00N 37°48' W 122°23'5 9.7
2018-Jan-20 02:31N 37°52' W 122°27'2 4.1
2018-Jan-20 02:00N 37°50' W 122°25'2 4.7
2018-Jan-20 01:30N 37°48' W 122°24'5 9.9
2018-Jan-20 01:00N 37°52' W 122°27'510.6
2018-Jan-20 00:30N 37°48' W 122°23'1 1.1
2018-Jan-20 00:00N 37°48' W 122°23'0 1.0
2018-Jan-19 23:31N 37°48' W 122°24'0 0.0
2018-Jan-19 23:01N 37°48' W 122°24'0 0.0
2018-Jan-19 22:30N 37°48' W 122°24'0 0.0
2018-Jan-19 22:01N 37°48' W 122°24'0 0.0
2018-Jan-19 21:30N 37°48' W 122°24'0 0.0
2018-Jan-19 21:00N 37°48' W 122°24'0 0.0
2018-Jan-19 20:31N 37°48' W 122°24'0 0.0
2018-Jan-19 20:00N 37°48' W 122°24'0 0.0
2018-Jan-19 19:31N 37°48' W 122°24'0 0.0
2018-Jan-19 19:00N 37°48' W 122°24'0 0.0
2018-Jan-19 18:31N 37°48' W 122°24'0 0.6
2018-Jan-19 18:00N 37°48' W 122°23'1 2.7
2018-Jan-19 17:30N 37°49' W 122°23'4 8.4
2018-Jan-19 17:00N 37°52' W 122°27'510.4
2018-Jan-19 16:30N 37°48' W 122°24'510.7
2018-Jan-19 16:00N 37°52' W 122°27'4 8.2
2018-Jan-19 15:30N 37°49' W 122°24'1 1.5
2018-Jan-19 15:00N 37°50' W 122°24'3 6.6
2018-Jan-19 14:30N 37°52' W 122°27'510.4
2018-Jan-19 14:00N 37°48' W 122°24'511.1
2018-Jan-19 13:30N 37°52' W 122°27'4 7.2
2018-Jan-19 13:00N 37°56' W 122°29'2 0.2
2018-Jan-19 05:30N 37°57' W 122°31'3 6.0
2018-Jan-19 05:01N 37°55' W 122°27'3 5.8
2018-Jan-19 04:30N 37°52' W 122°27'510.8
2018-Jan-19 04:00N 37°48' W 122°24'511.0
2018-Jan-19 03:30N 37°52' W 122°27'510.8
2018-Jan-19 03:00N 37°48' W 122°23'4 7.2
2018-Jan-19 02:30N 37°51' W 122°26'0 0.7
2018-Jan-19 02:00N 37°51' W 122°26'3 5.3
2018-Jan-19 01:30N 37°48' W 122°24'5 9.7
2018-Jan-19 01:00N 37°52' W 122°27'510.6
2018-Jan-19 00:30N 37°48' W 122°23'0 0.9
2018-Jan-19 00:00N 37°48' W 122°24'5 9.8
2018-Jan-18 23:30N 37°53' W 122°26'510.5
2018-Jan-18 23:01N 37°57' W 122°31'0 0.1
2018-Jan-18 22:31N 37°57' W 122°30'0 0.0
2018-Jan-18 19:43N 37°57' W 122°30'0 0.2
2018-Jan-18 19:27N 37°57' W 122°31'0 0.1
2018-Jan-18 19:00N 37°57' W 122°30'1 1.7
2018-Jan-18 18:31N 37°56' W 122°30'714.2
2018-Jan-18 18:00N 37°51' W 122°24'2 3.6
2018-Jan-18 17:30N 37°49' W 122°24'4 8.6
2018-Jan-18 17:00N 37°52' W 122°27'510.4
2018-Jan-18 16:30N 37°48' W 122°24'510.9
2018-Jan-18 16:00N 37°52' W 122°27'4 8.5
2018-Jan-18 15:30N 37°49' W 122°24'1 2.2
2018-Jan-18 15:00N 37°50' W 122°25'3 6.4
2018-Jan-18 14:31N 37°52' W 122°27'510.9
2018-Jan-18 14:01N 37°48' W 122°24'510.9
2018-Jan-18 13:30N 37°52' W 122°27'4 7.2
2018-Jan-18 13:01N 37°56' W 122°28'2 3.6
2018-Jan-18 12:30N 37°57' W 122°31'0 0.0
2018-Jan-18 05:29N 37°57' W 122°31'3 6.2
2018-Jan-18 05:01N 37°55' W 122°27'3 5.7
2018-Jan-18 04:30N 37°52' W 122°27'510.7
2018-Jan-18 04:00N 37°48' W 122°24'511.2
2018-Jan-18 03:30N 37°52' W 122°27'510.5
2018-Jan-18 03:00N 37°48' W 122°23'3 6.7
2018-Jan-18 02:30N 37°51' W 122°26'1 1.5
2018-Jan-18 02:00N 37°50' W 122°25'2 5.0
2018-Jan-18 01:30N 37°48' W 122°24'5 9.9
2018-Jan-18 01:01N 37°52' W 122°27'6 5.8
2018-Jan-18 00:00N 37°48' W 122°23'0 2.5
2018-Jan-17 23:58N 37°48' W 122°23'  
Track history (hours):
 
Tides and Currents Weather Stations Pressure Air Temp Water Temp Dewpoint Dewpoint Depression Visibility Wind Speed Wind Dir Waves Ship Positions

M S San Francisco

Owner: GOLDEN GATE BRIDGE HWY & TRANSP DISTRICT, LARKSPUR, CA. More information available from US FCC via Universal Licensing System and Coast Guard Vessel Documentation Center.

Last reported at 2018-Jan-23 23:00 UTC. Time now 2018-Jan-23 23:26 UTC.
Position N 37°57' W 122°31'.

Length 58 m.

Type: Passenger vessel. MMSI: 366963980.

Date/timePositionNaut miles runAvg speedWind from/ knotsBaromVisibWave heightAir tempDewpointWater temp
2018-Jan-23 23:00N 37°57' W 122°31'0 0.1
2018-Jan-23 22:30N 37°57' W 122°30'0 0.1
2018-Jan-23 22:00N 37°57' W 122°31'0 0.1
2018-Jan-23 21:30N 37°57' W 122°30'0 0.1
2018-Jan-23 21:00N 37°57' W 122°31'0 0.0
2018-Jan-23 20:30N 37°57' W 122°31'0 0.1
2018-Jan-23 20:00N 37°57' W 122°30'0 0.1
2018-Jan-23 19:30N 37°57' W 122°31'0 0.0
2018-Jan-23 19:00N 37°57' W 122°31'0 0.9
2018-Jan-23 18:30N 37°56' W 122°30'713.5
2018-Jan-23 18:00N 37°52' W 122°24'3 5.4
2018-Jan-23 17:30N 37°49' W 122°24'4 8.8
2018-Jan-23 17:00N 37°52' W 122°27'510.7
2018-Jan-23 16:31N 37°48' W 122°24'510.7
2018-Jan-23 16:00N 37°52' W 122°27'3 6.2
2018-Jan-23 15:31N 37°50' W 122°24'1 1.2
2018-Jan-23 15:00N 37°50' W 122°25'4 7.0
2018-Jan-23 14:30N 37°52' W 122°27'510.8
2018-Jan-23 14:00N 37°48' W 122°24'510.9
2018-Jan-23 13:30N 37°52' W 122°27'4 8.4
2018-Jan-23 13:01N 37°56' W 122°29'1 0.1
2018-Jan-23 05:25N 37°57' W 122°31'3 6.7
2018-Jan-23 05:00N 37°55' W 122°27'3 5.9
2018-Jan-23 04:30N 37°52' W 122°27'510.9
2018-Jan-23 04:00N 37°48' W 122°24'511.0
2018-Jan-23 03:30N 37°52' W 122°27'510.7
2018-Jan-23 03:01N 37°48' W 122°23'3 6.8
2018-Jan-23 02:30N 37°51' W 122°26'1 1.3
2018-Jan-23 02:00N 37°50' W 122°25'3 5.1
2018-Jan-23 01:30N 37°48' W 122°24'510.0
2018-Jan-23 01:00N 37°52' W 122°27'510.6
2018-Jan-23 00:30N 37°48' W 122°23'1 1.5
2018-Jan-23 00:00N 37°49' W 122°24'816.0
2018-Jan-22 23:30N 37°56' W 122°28'2 3.5
2018-Jan-22 22:59N 37°57' W 122°31'0 0.0
2018-Jan-22 22:29N 37°57' W 122°31'0 0.1
2018-Jan-22 21:59N 37°57' W 122°30'0 0.1
2018-Jan-22 21:30N 37°57' W 122°31'0 0.0
2018-Jan-22 21:00N 37°57' W 122°31'0 0.0
2018-Jan-22 20:29N 37°57' W 122°31'0 0.0
2018-Jan-22 20:00N 37°57' W 122°31'0 0.1
2018-Jan-22 19:30N 37°57' W 122°30'0 0.1
2018-Jan-22 19:00N 37°57' W 122°31'1 1.3
2018-Jan-22 18:30N 37°56' W 122°30'612.2
2018-Jan-22 18:00N 37°52' W 122°24'3 6.1
2018-Jan-22 17:31N 37°49' W 122°24'4 8.7
2018-Jan-22 17:00N 37°52' W 122°27'510.6
2018-Jan-22 16:30N 37°48' W 122°24'510.7
2018-Jan-22 16:01N 37°52' W 122°27'3 6.6
2018-Jan-22 15:30N 37°50' W 122°24'1 1.1
2018-Jan-22 15:01N 37°50' W 122°25'3 6.6
2018-Jan-22 14:30N 37°52' W 122°27'510.8
2018-Jan-22 14:00N 37°48' W 122°24'510.9
2018-Jan-22 13:30N 37°52' W 122°27'4 8.2
2018-Jan-22 13:00N 37°56' W 122°29'1 0.1
2018-Jan-22 04:17N 37°57' W 122°31'2 7.1
2018-Jan-22 04:00N 37°56' W 122°28'917.1
2018-Jan-22 03:30N 37°48' W 122°23'2 3.7
2018-Jan-22 03:00N 37°50' W 122°25'4 7.1
2018-Jan-22 02:31N 37°51' W 122°29'510.8
2018-Jan-22 02:00N 37°48' W 122°24'0 0.3
2018-Jan-22 01:30N 37°48' W 122°24'917.7
2018-Jan-22 01:00N 37°56' W 122°29'1 2.4
2018-Jan-22 00:30N 37°56' W 122°30'815.1
2018-Jan-22 00:01N 37°51' W 122°24'3 5.7
2018-Jan-21 23:30N 37°48' W 122°24'0 0.0
2018-Jan-21 23:00N 37°48' W 122°24'0 0.0
2018-Jan-21 22:29N 37°48' W 122°24'715.6
2018-Jan-21 22:00N 37°55' W 122°27'3 6.6
2018-Jan-21 21:30N 37°57' W 122°31'713.1
2018-Jan-21 21:00N 37°52' W 122°25'4 8.8
2018-Jan-21 20:30N 37°48' W 122°24'918.0
2018-Jan-21 20:00N 37°56' W 122°29'2 3.5
2018-Jan-21 19:30N 37°57' W 122°31'0 0.0
2018-Jan-21 03:29N 37°57' W 122°31'3 6.2
2018-Jan-21 03:00N 37°55' W 122°27'816.2
2018-Jan-21 02:30N 37°48' W 122°24'0 0.4
2018-Jan-21 02:00N 37°48' W 122°23'510.6
2018-Jan-21 01:30N 37°51' W 122°29'1 1.6
2018-Jan-21 01:01N 37°51' W 122°28'5 9.3
2018-Jan-21 00:30N 37°48' W 122°24'4 8.2
2018-Jan-21 00:01N 37°51' W 122°27'1 2.7
2018-Jan-20 23:31N 37°51' W 122°29'510.0
2018-Jan-20 23:00N 37°49' W 122°23'1 1.0
2018-Jan-20 22:31N 37°49' W 122°24'5 9.1
2018-Jan-20 22:00N 37°51' W 122°29'510.8
2018-Jan-20 21:30N 37°48' W 122°23'3 5.0
2018-Jan-20 21:00N 37°50' W 122°25'3 5.9
2018-Jan-20 20:30N 37°51' W 122°29'510.7
2018-Jan-20 20:00N 37°48' W 122°24'510.9
2018-Jan-20 19:31N 37°51' W 122°29'2 3.0
2018-Jan-20 19:01N 37°51' W 122°27'4 8.0
2018-Jan-20 18:31N 37°48' W 122°24'612.8
2018-Jan-20 18:01N 37°54' W 122°26'4 8.7
2018-Jan-20 17:30N 37°57' W 122°30'0 0.0
2018-Jan-20 05:33N 37°57' W 122°31'0 0.0
2018-Jan-20 05:30N 37°57' W 122°31'3 6.1
2018-Jan-20 05:00N 37°55' W 122°27'3 5.8
2018-Jan-20 04:30N 37°52' W 122°27'510.7
2018-Jan-20 04:01N 37°48' W 122°24'510.9
2018-Jan-20 03:30N 37°52' W 122°27'510.8
2018-Jan-20 03:00N 37°48' W 122°23'5 9.7
2018-Jan-20 02:31N 37°52' W 122°27'2 4.1
2018-Jan-20 02:00N 37°50' W 122°25'2 4.7
2018-Jan-20 01:30N 37°48' W 122°24'5 9.9
2018-Jan-20 01:00N 37°52' W 122°27'510.6
2018-Jan-20 00:30N 37°48' W 122°23'1 1.1
2018-Jan-20 00:00N 37°48' W 122°23'0 1.0
2018-Jan-19 23:31N 37°48' W 122°24'0 0.0
2018-Jan-19 23:01N 37°48' W 122°24'0 0.0
2018-Jan-19 22:30N 37°48' W 122°24'0 0.0
2018-Jan-19 22:01N 37°48' W 122°24'0 0.0
2018-Jan-19 21:30N 37°48' W 122°24'0 0.0
2018-Jan-19 21:00N 37°48' W 122°24'0 0.0
2018-Jan-19 20:31N 37°48' W 122°24'0 0.0
2018-Jan-19 20:00N 37°48' W 122°24'0 0.0
2018-Jan-19 19:31N 37°48' W 122°24'0 0.0
2018-Jan-19 19:00N 37°48' W 122°24'0 0.0
2018-Jan-19 18:31N 37°48' W 122°24'0 0.6
2018-Jan-19 18:00N 37°48' W 122°23'1 2.7
2018-Jan-19 17:30N 37°49' W 122°23'4 8.4
2018-Jan-19 17:00N 37°52' W 122°27'510.4
2018-Jan-19 16:30N 37°48' W 122°24'510.7
2018-Jan-19 16:00N 37°52' W 122°27'4 8.2
2018-Jan-19 15:30N 37°49' W 122°24'1 1.5
2018-Jan-19 15:00N 37°50' W 122°24'3 6.6
2018-Jan-19 14:30N 37°52' W 122°27'510.4
2018-Jan-19 14:00N 37°48' W 122°24'511.1
2018-Jan-19 13:30N 37°52' W 122°27'4 7.2
2018-Jan-19 13:00N 37°56' W 122°29'2 0.2
2018-Jan-19 05:30N 37°57' W 122°31'3 6.0
2018-Jan-19 05:01N 37°55' W 122°27'3 5.8
2018-Jan-19 04:30N 37°52' W 122°27'510.8
2018-Jan-19 04:00N 37°48' W 122°24'511.0
2018-Jan-19 03:30N 37°52' W 122°27'510.8
2018-Jan-19 03:00N 37°48' W 122°23'4 7.2
2018-Jan-19 02:30N 37°51' W 122°26'0 0.7
2018-Jan-19 02:00N 37°51' W 122°26'3 5.3
2018-Jan-19 01:30N 37°48' W 122°24'5 9.7
2018-Jan-19 01:00N 37°52' W 122°27'510.6
2018-Jan-19 00:30N 37°48' W 122°23'0 0.9
2018-Jan-19 00:00N 37°48' W 122°24'5 9.8
2018-Jan-18 23:30N 37°53' W 122°26'510.5
2018-Jan-18 23:01N 37°57' W 122°31'0 0.1
2018-Jan-18 22:31N 37°57' W 122°30'0 0.0
2018-Jan-18 19:43N 37°57' W 122°30'0 0.2
2018-Jan-18 19:27N 37°57' W 122°31'0 0.1
2018-Jan-18 19:00N 37°57' W 122°30'1 1.7
2018-Jan-18 18:31N 37°56' W 122°30'714.2
2018-Jan-18 18:00N 37°51' W 122°24'2 3.6
2018-Jan-18 17:30N 37°49' W 122°24'4 8.6
2018-Jan-18 17:00N 37°52' W 122°27'510.4
2018-Jan-18 16:30N 37°48' W 122°24'510.9
2018-Jan-18 16:00N 37°52' W 122°27'4 8.5
2018-Jan-18 15:30N 37°49' W 122°24'1 2.2
2018-Jan-18 15:00N 37°50' W 122°25'3 6.4
2018-Jan-18 14:31N 37°52' W 122°27'510.9
2018-Jan-18 14:01N 37°48' W 122°24'510.9
2018-Jan-18 13:30N 37°52' W 122°27'4 7.2
2018-Jan-18 13:01N 37°56' W 122°28'2 3.6
2018-Jan-18 12:30N 37°57' W 122°31'0 0.0
2018-Jan-18 05:29N 37°57' W 122°31'3 6.2
2018-Jan-18 05:01N 37°55' W 122°27'3 5.7
2018-Jan-18 04:30N 37°52' W 122°27'510.7
2018-Jan-18 04:00N 37°48' W 122°24'511.2
2018-Jan-18 03:30N 37°52' W 122°27'510.5
2018-Jan-18 03:00N 37°48' W 122°23'3 6.7
2018-Jan-18 02:30N 37°51' W 122°26'1 1.5
2018-Jan-18 02:00N 37°50' W 122°25'2 5.0
2018-Jan-18 01:30N 37°48' W 122°24'5 9.9
2018-Jan-18 01:01N 37°52' W 122°27'6 5.8
2018-Jan-18 00:00N 37°48' W 122°23'0 2.5
2018-Jan-17 23:58N 37°48' W 122°23'  

Dump ship's entire track history